Airfield :
LOGIN :

Register | Disclaimer

   EN    FR    IT 

 










Legend :    VFR   Marginal VFR   IFR   Intensive IFR   Very Intensive IFR
Visi :
Ceiling :
>= 8 km
>= 3000ft
5 to 8 km
1000 to 3000 ft
1500m to 5 km
500 to 1000 ft
800 to 1500m
200 to 500 ft
< 800m
< 200 ft
Symbols :   Thunderstorms  Fog  Heavy snow  Heavy precipitations  Wind > 20 kt
SIGMETs :     Misc.  Thunderstorms  Icing  Turbulence  Mountain Waves  Volcanic Ashes







- Airport Elevation : 194 ft


EBCV - Chièvres

CURRENT METAR :
  • 151025Z AUTO 19011KT 9999 SCT130/// 21/10 Q1012 BLU

EXPIRED METARs :
  • 150955Z AUTO 18010KT 9999 SCT130/// 20/10 Q1012 BLU
  • 150925Z AUTO 17011KT 9999 NCD 20/10 Q1012 BLU
  • 150855Z AUTO 18008KT 9999 NCD 20/11 Q1011 BLU
  • 150825Z AUTO 18009KT 9999 NCD 20/10 Q1011 BLU
  • 150755Z AUTO 17007KT 9999 NCD 19/11 Q1011 BLU
  • 150725Z AUTO 17007KT 9999 NCD 19/11 Q1010 BLU

TAF TAF EBCV
Valid from the 15 at 10:00 until the 15 at 19:00 UTC


150841Z 1510/1519 19009KT 9999 FEW060 BKN140 BY EBWM
No reported NOTAMs for that airfield.



MET'MAP, your aeronautical weather chart ! - Copyright ORBIFLY December 2007 - Disclaimer

ORBIFLY MET'MAP TEAM :

Programming & Development : Alexandra Zaïnal
Concept & Development : Baudouin d'Aumeries
Co-Development & Prog : Marc-Olivier Méhu
Technical & hardware support : Manuel Goepfert

Contact : metmap@orbifly.com




SOURCES & CREDITS :

   NOAA